sensor_id;sensor_type;location;lat;lon;timestamp;temperature;humidity
21676;DHT22;10999;51.332;9.458;2024-02-28T00:01:47;0.70;98.20
21676;DHT22;10999;51.332;9.458;2024-02-28T00:05:23;0.70;98.20
21676;DHT22;10999;51.332;9.458;2024-02-28T00:08:54;0.70;98.50
21676;DHT22;10999;51.332;9.458;2024-02-28T00:12:10;0.70;98.90
21676;DHT22;10999;51.332;9.458;2024-02-28T00:15:23;0.80;99.10
21676;DHT22;10999;51.332;9.458;2024-02-28T00:19:01;0.80;99.10
21676;DHT22;10999;51.332;9.458;2024-02-28T00:22:47;0.80;99.30
21676;DHT22;10999;51.332;9.458;2024-02-28T00:26:22;0.90;99.60
21676;DHT22;10999;51.332;9.458;2024-02-28T00:30:13;0.90;99.70
21676;DHT22;10999;51.332;9.458;2024-02-28T00:33:06;0.90;99.90
21676;DHT22;10999;51.332;9.458;2024-02-28T00:36:52;0.90;99.90
21676;DHT22;10999;51.332;9.458;2024-02-28T00:40:17;1.00;99.90
21676;DHT22;10999;51.332;9.458;2024-02-28T00:44:31;1.10;99.90
21676;DHT22;10999;51.332;9.458;2024-02-28T00:48:09;1.10;99.90
21676;DHT22;10999;51.332;9.458;2024-02-28T00:52:01;1.20;99.90
21676;DHT22;10999;51.332;9.458;2024-02-28T00:55:21;1.20;99.90
21676;DHT22;10999;51.332;9.458;2024-02-28T03:42:04;1.60;99.90
21676;DHT22;10999;51.332;9.458;2024-02-28T03:44:49;1.60;99.90
21676;DHT22;10999;51.332;9.458;2024-02-28T03:47:40;1.70;99.90
21676;DHT22;10999;51.332;9.458;2024-02-28T03:50:35;1.60;99.90
21676;DHT22;10999;51.332;9.458;2024-02-28T03:53:21;1.70;99.90
21676;DHT22;10999;51.332;9.458;2024-02-28T03:56:28;1.60;99.90
21676;DHT22;10999;51.332;9.458;2024-02-28T03:59:32;1.60;99.90
21676;DHT22;10999;51.332;9.458;2024-02-28T04:02:23;1.70;99.90
21676;DHT22;10999;51.332;9.458;2024-02-28T04:05:27;1.70;99.90
21676;DHT22;10999;51.332;9.458;2024-02-28T04:08:28;1.70;99.90
21676;DHT22;10999;51.332;9.458;2024-02-28T04:11:22;1.80;99.90
21676;DHT22;10999;51.332;9.458;2024-02-28T04:14:32;1.80;99.90
21676;DHT22;10999;51.332;9.458;2024-02-28T04:17:49;1.70;99.90
21676;DHT22;10999;51.332;9.458;2024-02-28T06:28:10;1.40;99.90
21676;DHT22;10999;51.332;9.458;2024-02-28T06:31:16;1.40;99.90
21676;DHT22;10999;51.332;9.458;2024-02-28T06:34:28;1.30;99.90
21676;DHT22;10999;51.332;9.458;2024-02-28T06:37:09;1.30;99.90
21676;DHT22;10999;51.332;9.458;2024-02-28T06:39:52;1.30;99.90
21676;DHT22;10999;51.332;9.458;2024-02-28T06:43:04;1.30;99.90
21676;DHT22;10999;51.332;9.458;2024-02-28T06:45:48;1.30;99.90
21676;DHT22;10999;51.332;9.458;2024-02-28T06:48:56;1.40;99.90
21676;DHT22;10999;51.332;9.458;2024-02-28T06:52:01;1.40;99.90
21676;DHT22;10999;51.332;9.458;2024-02-28T06:54:45;1.30;99.90
21676;DHT22;10999;51.332;9.458;2024-02-28T06:57:37;1.30;99.90
21676;DHT22;10999;51.332;9.458;2024-02-28T07:00:22;1.40;99.90
21676;DHT22;10999;51.332;9.458;2024-02-28T07:03:15;1.40;99.90
21676;DHT22;10999;51.332;9.458;2024-02-28T07:06:17;1.40;99.90
21676;DHT22;10999;51.332;9.458;2024-02-28T07:09:04;1.30;99.90
21676;DHT22;10999;51.332;9.458;2024-02-28T07:11:45;1.40;99.90
21676;DHT22;10999;51.332;9.458;2024-02-28T07:14:40;1.40;99.90
21676;DHT22;10999;51.332;9.458;2024-02-28T07:17:31;1.40;99.90
21676;DHT22;10999;51.332;9.458;2024-02-28T07:20:13;1.30;99.90
21676;DHT22;10999;51.332;9.458;2024-02-28T07:23:19;1.30;99.90
21676;DHT22;10999;51.332;9.458;2024-02-28T07:26:13;1.40;99.90
21676;DHT22;10999;51.332;9.458;2024-02-28T07:29:12;1.30;99.90
21676;DHT22;10999;51.332;9.458;2024-02-28T07:32:37;1.40;99.90
21676;DHT22;10999;51.332;9.458;2024-02-28T07:35:28;1.40;99.90
21676;DHT22;10999;51.332;9.458;2024-02-28T07:38:36;1.50;99.90
21676;DHT22;10999;51.332;9.458;2024-02-28T07:41:30;1.60;99.90
21676;DHT22;10999;51.332;9.458;2024-02-28T07:44:37;1.60;99.90
21676;DHT22;10999;51.332;9.458;2024-02-28T07:48:26;1.60;99.90
21676;DHT22;10999;51.332;9.458;2024-02-28T07:52:24;1.50;99.90
21676;DHT22;10999;51.332;9.458;2024-02-28T07:55:24;1.60;99.90
21676;DHT22;10999;51.332;9.458;2024-02-28T07:58:09;1.60;99.90
21676;DHT22;10999;51.332;9.458;2024-02-28T08:00:55;1.60;99.90
21676;DHT22;10999;51.332;9.458;2024-02-28T08:03:36;1.70;99.90
21676;DHT22;10999;51.332;9.458;2024-02-28T08:06:13;1.70;99.90
21676;DHT22;10999;51.332;9.458;2024-02-28T08:09:06;1.80;99.90
21676;DHT22;10999;51.332;9.458;2024-02-28T08:12:05;1.90;99.90
21676;DHT22;10999;51.332;9.458;2024-02-28T08:15:29;1.90;99.90
21676;DHT22;10999;51.332;9.458;2024-02-28T08:19:12;2.00;99.90
21676;DHT22;10999;51.332;9.458;2024-02-28T08:22:25;2.00;99.90
21676;DHT22;10999;51.332;9.458;2024-02-28T08:25:16;2.00;99.90
21676;DHT22;10999;51.332;9.458;2024-02-28T08:28:20;2.00;99.90
21676;DHT22;10999;51.332;9.458;2024-02-28T08:31:10;2.10;99.90
21676;DHT22;10999;51.332;9.458;2024-02-28T08:34:08;2.30;99.90
21676;DHT22;10999;51.332;9.458;2024-02-28T08:36:59;2.40;99.90
21676;DHT22;10999;51.332;9.458;2024-02-28T08:40:17;2.50;99.90
21676;DHT22;10999;51.332;9.458;2024-02-28T08:43:14;2.70;99.90
21676;DHT22;10999;51.332;9.458;2024-02-28T08:45:54;2.80;99.90
21676;DHT22;10999;51.332;9.458;2024-02-28T08:48:54;2.90;99.90
21676;DHT22;10999;51.332;9.458;2024-02-28T08:52:26;3.00;99.90
21676;DHT22;10999;51.332;9.458;2024-02-28T08:55:24;3.10;99.90
21676;DHT22;10999;51.332;9.458;2024-02-28T08:58:12;3.20;99.90
21676;DHT22;10999;51.332;9.458;2024-02-28T09:01:17;3.10;98.90
21676;DHT22;10999;51.332;9.458;2024-02-28T09:04:08;3.10;99.60
21676;DHT22;10999;51.332;9.458;2024-02-28T09:07:15;3.00;97.90
21676;DHT22;10999;51.332;9.458;2024-02-28T09:09:48;3.00;97.90
21676;DHT22;10999;51.332;9.458;2024-02-28T09:12:35;3.00;98.10
21676;DHT22;10999;51.332;9.458;2024-02-28T09:15:57;3.00;98.00
21676;DHT22;10999;51.332;9.458;2024-02-28T09:18:27;3.10;97.80
21676;DHT22;10999;51.332;9.458;2024-02-28T09:20:54;3.10;97.70
21676;DHT22;10999;51.332;9.458;2024-02-28T09:23:24;3.10;97.50
21676;DHT22;10999;51.332;9.458;2024-02-28T09:26:05;3.20;97.40
21676;DHT22;10999;51.332;9.458;2024-02-28T09:29:13;3.10;96.80
21676;DHT22;10999;51.332;9.458;2024-02-28T09:31:57;3.00;96.00
21676;DHT22;10999;51.332;9.458;2024-02-28T09:34:43;2.90;96.40
21676;DHT22;10999;51.332;9.458;2024-02-28T09:37:28;2.90;96.70
21676;DHT22;10999;51.332;9.458;2024-02-28T09:40:27;2.80;96.80
21676;DHT22;10999;51.332;9.458;2024-02-28T09:43:52;2.80;96.90
21676;DHT22;10999;51.332;9.458;2024-02-28T09:46:29;2.90;96.80
21676;DHT22;10999;51.332;9.458;2024-02-28T09:48:59;3.00;97.00
21676;DHT22;10999;51.332;9.458;2024-02-28T09:51:28;3.00;96.00
21676;DHT22;10999;51.332;9.458;2024-02-28T09:54:23;3.00;97.20
21676;DHT22;10999;51.332;9.458;2024-02-28T10:05:24;3.10;95.90
21676;DHT22;10999;51.332;9.458;2024-02-28T10:09:31;3.10;95.70
21676;DHT22;10999;51.332;9.458;2024-02-28T10:12:48;3.20;96.50
21676;DHT22;10999;51.332;9.458;2024-02-28T10:16:37;3.30;94.30
21676;DHT22;10999;51.332;9.458;2024-02-28T10:20:14;3.30;93.20
21676;DHT22;10999;51.332;9.458;2024-02-28T10:23:27;3.40;93.30
21676;DHT22;10999;51.332;9.458;2024-02-28T10:26:45;3.50;93.60
21676;DHT22;10999;51.332;9.458;2024-02-28T10:29:40;3.50;92.60
21676;DHT22;10999;51.332;9.458;2024-02-28T10:32:31;3.50;93.30
21676;DHT22;10999;51.332;9.458;2024-02-28T10:35:24;3.40;92.90
21676;DHT22;10999;51.332;9.458;2024-02-28T10:38:32;3.50;93.50
21676;DHT22;10999;51.332;9.458;2024-02-28T10:41:44;3.60;93.60
21676;DHT22;10999;51.332;9.458;2024-02-28T10:45:31;3.60;92.90
21676;DHT22;10999;51.332;9.458;2024-02-28T10:48:33;3.60;92.60
21676;DHT22;10999;51.332;9.458;2024-02-28T10:51:23;3.60;92.10
21676;DHT22;10999;51.332;9.458;2024-02-28T10:54:12;3.60;92.30
21676;DHT22;10999;51.332;9.458;2024-02-28T10:56:49;3.70;91.00
21676;DHT22;10999;51.332;9.458;2024-02-28T10:59:17;3.80;91.30
21676;DHT22;10999;51.332;9.458;2024-02-28T11:01:50;3.80;91.90
21676;DHT22;10999;51.332;9.458;2024-02-28T11:04:20;4.00;91.40
21676;DHT22;10999;51.332;9.458;2024-02-28T11:06:58;3.90;91.00
21676;DHT22;10999;51.332;9.458;2024-02-28T11:09:44;4.00;89.90
21676;DHT22;10999;51.332;9.458;2024-02-28T11:12:26;4.10;89.60
21676;DHT22;10999;51.332;9.458;2024-02-28T11:15:05;4.10;89.80
21676;DHT22;10999;51.332;9.458;2024-02-28T11:18:15;4.10;88.90
21676;DHT22;10999;51.332;9.458;2024-02-28T11:20:45;4.30;90.20
21676;DHT22;10999;51.332;9.458;2024-02-28T11:23:35;4.40;89.90
21676;DHT22;10999;51.332;9.458;2024-02-28T11:26:44;4.40;89.20
21676;DHT22;10999;51.332;9.458;2024-02-28T11:29:28;4.60;88.90
21676;DHT22;10999;51.332;9.458;2024-02-28T11:32:39;4.70;88.20
21676;DHT22;10999;51.332;9.458;2024-02-28T11:36:24;4.90;87.90
21676;DHT22;10999;51.332;9.458;2024-02-28T11:39:36;5.00;86.30
21676;DHT22;10999;51.332;9.458;2024-02-28T11:46:42;5.00;83.40
21676;DHT22;10999;51.332;9.458;2024-02-28T11:50:11;5.00;83.70
21676;DHT22;10999;51.332;9.458;2024-02-28T11:53:25;4.90;83.60
21676;DHT22;10999;51.332;9.458;2024-02-28T11:56:41;4.90;83.70
21676;DHT22;10999;51.332;9.458;2024-02-28T12:20:37;5.30;83.40
21676;DHT22;10999;51.332;9.458;2024-02-28T12:24:12;5.10;81.60
21676;DHT22;10999;51.332;9.458;2024-02-28T12:27:27;5.20;83.10
21676;DHT22;10999;51.332;9.458;2024-02-28T12:30:43;5.20;82.10
21676;DHT22;10999;51.332;9.458;2024-02-28T12:37:58;5.20;82.10
21676;DHT22;10999;51.332;9.458;2024-02-28T12:41:32;5.20;82.70
21676;DHT22;10999;51.332;9.458;2024-02-28T12:44:42;5.20;82.50
21676;DHT22;10999;51.332;9.458;2024-02-28T12:51:59;5.30;82.50
21676;DHT22;10999;51.332;9.458;2024-02-28T12:54:27;5.40;82.80
21676;DHT22;10999;51.332;9.458;2024-02-28T12:56:55;5.30;82.00
21676;DHT22;10999;51.332;9.458;2024-02-28T12:59:24;5.40;82.60
21676;DHT22;10999;51.332;9.458;2024-02-28T13:02:09;5.30;82.30
21676;DHT22;10999;51.332;9.458;2024-02-28T13:04:50;5.40;82.40
21676;DHT22;10999;51.332;9.458;2024-02-28T13:07:41;5.40;82.30
21676;DHT22;10999;51.332;9.458;2024-02-28T13:11:28;5.20;82.30
21676;DHT22;10999;51.332;9.458;2024-02-28T13:14:13;5.30;84.50
21676;DHT22;10999;51.332;9.458;2024-02-28T13:16:40;5.40;84.30
21676;DHT22;10999;51.332;9.458;2024-02-28T13:19:07;5.50;83.20
21676;DHT22;10999;51.332;9.458;2024-02-28T13:21:34;5.50;83.10
21676;DHT22;10999;51.332;9.458;2024-02-28T13:24:02;5.50;82.20
21676;DHT22;10999;51.332;9.458;2024-02-28T13:26:29;5.50;81.30
21676;DHT22;10999;51.332;9.458;2024-02-28T13:28:56;5.50;81.10
21676;DHT22;10999;51.332;9.458;2024-02-28T13:31:46;5.40;80.70
21676;DHT22;10999;51.332;9.458;2024-02-28T13:34:47;5.40;80.70
21676;DHT22;10999;51.332;9.458;2024-02-28T13:38:26;5.40;81.40
21676;DHT22;10999;51.332;9.458;2024-02-28T13:41:21;5.70;82.70
21676;DHT22;10999;51.332;9.458;2024-02-28T13:43:52;5.90;78.90
21676;DHT22;10999;51.332;9.458;2024-02-28T13:46:22;5.90;79.20
21676;DHT22;10999;51.332;9.458;2024-02-28T13:48:49;6.20;80.00
21676;DHT22;10999;51.332;9.458;2024-02-28T13:51:16;6.30;77.30
21676;DHT22;10999;51.332;9.458;2024-02-28T13:53:43;6.30;76.30
21676;DHT22;10999;51.332;9.458;2024-02-28T13:56:10;6.40;74.80
21676;DHT22;10999;51.332;9.458;2024-02-28T13:58:37;6.30;74.30
21676;DHT22;10999;51.332;9.458;2024-02-28T14:01:15;6.40;75.20
21676;DHT22;10999;51.332;9.458;2024-02-28T14:03:42;6.30;75.50
21676;DHT22;10999;51.332;9.458;2024-02-28T14:06:09;6.30;75.30
21676;DHT22;10999;51.332;9.458;2024-02-28T14:08:35;6.30;74.80
21676;DHT22;10999;51.332;9.458;2024-02-28T14:11:02;6.30;75.40
21676;DHT22;10999;51.332;9.458;2024-02-28T14:13:29;6.40;75.30
21676;DHT22;10999;51.332;9.458;2024-02-28T14:15:56;6.40;75.50
21676;DHT22;10999;51.332;9.458;2024-02-28T14:18:23;6.60;76.50
21676;DHT22;10999;51.332;9.458;2024-02-28T14:20:50;6.70;76.10
21676;DHT22;10999;51.332;9.458;2024-02-28T14:23:17;6.80;75.10
21676;DHT22;10999;51.332;9.458;2024-02-28T14:25:44;6.90;74.20
21676;DHT22;10999;51.332;9.458;2024-02-28T14:28:11;6.90;73.00
21676;DHT22;10999;51.332;9.458;2024-02-28T14:30:39;7.00;73.00
21676;DHT22;10999;51.332;9.458;2024-02-28T14:33:06;7.10;73.70
21676;DHT22;10999;51.332;9.458;2024-02-28T14:35:35;7.00;71.40
21676;DHT22;10999;51.332;9.458;2024-02-28T14:38:05;6.90;71.60
21676;DHT22;10999;51.332;9.458;2024-02-28T14:40:33;6.90;71.40
21676;DHT22;10999;51.332;9.458;2024-02-28T14:42:59;6.80;72.30
21676;DHT22;10999;51.332;9.458;2024-02-28T14:45:26;6.80;73.20
21676;DHT22;10999;51.332;9.458;2024-02-28T14:47:54;6.90;73.40
21676;DHT22;10999;51.332;9.458;2024-02-28T14:50:21;6.80;72.10
21676;DHT22;10999;51.332;9.458;2024-02-28T14:52:48;6.90;72.70
21676;DHT22;10999;51.332;9.458;2024-02-28T14:55:15;6.90;72.30
21676;DHT22;10999;51.332;9.458;2024-02-28T14:57:42;7.00;73.20
21676;DHT22;10999;51.332;9.458;2024-02-28T15:00:10;7.00;72.30
21676;DHT22;10999;51.332;9.458;2024-02-28T15:02:41;7.00;72.20
21676;DHT22;10999;51.332;9.458;2024-02-28T15:05:08;7.00;71.70
21676;DHT22;10999;51.332;9.458;2024-02-28T15:07:35;7.00;70.90
21676;DHT22;10999;51.332;9.458;2024-02-28T15:10:03;7.00;70.60
21676;DHT22;10999;51.332;9.458;2024-02-28T15:12:32;7.10;71.20
21676;DHT22;10999;51.332;9.458;2024-02-28T15:15:00;7.10;71.50
21676;DHT22;10999;51.332;9.458;2024-02-28T15:17:29;7.10;70.00
21676;DHT22;10999;51.332;9.458;2024-02-28T15:19:56;7.00;69.40
21676;DHT22;10999;51.332;9.458;2024-02-28T15:22:23;7.00;68.80
21676;DHT22;10999;51.332;9.458;2024-02-28T15:24:49;7.00;68.20
21676;DHT22;10999;51.332;9.458;2024-02-28T15:27:16;6.90;66.80
21676;DHT22;10999;51.332;9.458;2024-02-28T15:29:43;6.90;66.60
21676;DHT22;10999;51.332;9.458;2024-02-28T15:32:10;7.00;65.90
21676;DHT22;10999;51.332;9.458;2024-02-28T15:34:38;7.00;63.70
21676;DHT22;10999;51.332;9.458;2024-02-28T15:37:05;6.90;63.30
21676;DHT22;10999;51.332;9.458;2024-02-28T15:39:32;6.90;62.00
21676;DHT22;10999;51.332;9.458;2024-02-28T15:41:58;6.90;60.70
21676;DHT22;10999;51.332;9.458;2024-02-28T15:44:27;6.90;59.00
21676;DHT22;10999;51.332;9.458;2024-02-28T15:46:54;7.00;57.60
21676;DHT22;10999;51.332;9.458;2024-02-28T15:49:20;6.90;58.50
21676;DHT22;10999;51.332;9.458;2024-02-28T15:52:02;7.00;58.90
21676;DHT22;10999;51.332;9.458;2024-02-28T15:54:30;6.90;56.90
21676;DHT22;10999;51.332;9.458;2024-02-28T15:56:56;7.00;58.10
21676;DHT22;10999;51.332;9.458;2024-02-28T15:59:26;7.00;57.70
21676;DHT22;10999;51.332;9.458;2024-02-28T16:01:52;6.90;55.70
21676;DHT22;10999;51.332;9.458;2024-02-28T16:04:19;6.90;56.20
21676;DHT22;10999;51.332;9.458;2024-02-28T16:06:46;6.90;55.50
21676;DHT22;10999;51.332;9.458;2024-02-28T16:09:15;6.90;55.50
21676;DHT22;10999;51.332;9.458;2024-02-28T16:11:46;6.80;56.20
21676;DHT22;10999;51.332;9.458;2024-02-28T16:14:13;6.80;53.50
21676;DHT22;10999;51.332;9.458;2024-02-28T16:16:40;6.80;51.80
21676;DHT22;10999;51.332;9.458;2024-02-28T16:19:07;6.70;52.50
21676;DHT22;10999;51.332;9.458;2024-02-28T16:21:47;6.70;52.50
21676;DHT22;10999;51.332;9.458;2024-02-28T16:24:16;6.70;53.30
21676;DHT22;10999;51.332;9.458;2024-02-28T16:26:43;6.60;52.50
21676;DHT22;10999;51.332;9.458;2024-02-28T16:29:10;6.60;53.00
21676;DHT22;10999;51.332;9.458;2024-02-28T16:31:37;6.50;53.60
21676;DHT22;10999;51.332;9.458;2024-02-28T16:34:04;6.50;54.20
21676;DHT22;10999;51.332;9.458;2024-02-28T16:36:31;6.50;55.30
21676;DHT22;10999;51.332;9.458;2024-02-28T16:38:58;6.40;55.90
21676;DHT22;10999;51.332;9.458;2024-02-28T16:41:24;6.40;56.80
21676;DHT22;10999;51.332;9.458;2024-02-28T16:43:51;6.30;57.70
21676;DHT22;10999;51.332;9.458;2024-02-28T16:46:21;6.30;58.30
21676;DHT22;10999;51.332;9.458;2024-02-28T16:48:48;6.30;59.00
21676;DHT22;10999;51.332;9.458;2024-02-28T16:51:15;6.20;59.50
21676;DHT22;10999;51.332;9.458;2024-02-28T16:53:43;6.20;59.80
21676;DHT22;10999;51.332;9.458;2024-02-28T16:56:10;6.20;60.40
21676;DHT22;10999;51.332;9.458;2024-02-28T16:58:37;6.20;60.90
21676;DHT22;10999;51.332;9.458;2024-02-28T17:01:09;6.10;61.40
21676;DHT22;10999;51.332;9.458;2024-02-28T17:03:36;6.10;62.00
21676;DHT22;10999;51.332;9.458;2024-02-28T17:06:03;6.00;62.80
21676;DHT22;10999;51.332;9.458;2024-02-28T17:08:30;6.00;64.00
21676;DHT22;10999;51.332;9.458;2024-02-28T17:10:59;6.00;63.80
21676;DHT22;10999;51.332;9.458;2024-02-28T17:13:26;6.00;64.80
21676;DHT22;10999;51.332;9.458;2024-02-28T17:15:53;5.90;65.40
21676;DHT22;10999;51.332;9.458;2024-02-28T17:18:29;5.90;65.80
21676;DHT22;10999;51.332;9.458;2024-02-28T17:20:57;5.90;66.20
21676;DHT22;10999;51.332;9.458;2024-02-28T17:23:24;5.80;66.60
21676;DHT22;10999;51.332;9.458;2024-02-28T17:25:53;5.80;66.30
21676;DHT22;10999;51.332;9.458;2024-02-28T17:28:20;5.80;65.90
21676;DHT22;10999;51.332;9.458;2024-02-28T17:30:47;5.80;65.90
21676;DHT22;10999;51.332;9.458;2024-02-28T17:33:14;5.80;66.20
21676;DHT22;10999;51.332;9.458;2024-02-28T17:35:41;5.70;66.50
21676;DHT22;10999;51.332;9.458;2024-02-28T17:38:08;5.70;66.50
21676;DHT22;10999;51.332;9.458;2024-02-28T17:40:35;5.70;66.50
21676;DHT22;10999;51.332;9.458;2024-02-28T17:43:03;5.70;66.50
21676;DHT22;10999;51.332;9.458;2024-02-28T17:45:31;5.70;66.80
21676;DHT22;10999;51.332;9.458;2024-02-28T17:47:58;5.60;67.00
21676;DHT22;10999;51.332;9.458;2024-02-28T17:50:25;5.60;67.00
21676;DHT22;10999;51.332;9.458;2024-02-28T17:52:51;5.50;67.00
21676;DHT22;10999;51.332;9.458;2024-02-28T17:55:18;5.50;67.20
21676;DHT22;10999;51.332;9.458;2024-02-28T17:57:45;5.50;67.20
21676;DHT22;10999;51.332;9.458;2024-02-28T18:00:13;5.50;67.20
21676;DHT22;10999;51.332;9.458;2024-02-28T18:02:40;5.40;67.20
21676;DHT22;10999;51.332;9.458;2024-02-28T18:05:08;5.40;67.20
21676;DHT22;10999;51.332;9.458;2024-02-28T18:07:36;5.40;67.40
21676;DHT22;10999;51.332;9.458;2024-02-28T18:10:03;5.40;67.60
21676;DHT22;10999;51.332;9.458;2024-02-28T18:12:30;5.30;68.10
21676;DHT22;10999;51.332;9.458;2024-02-28T18:14:57;5.20;68.40
21676;DHT22;10999;51.332;9.458;2024-02-28T18:17:23;5.30;68.80
21676;DHT22;10999;51.332;9.458;2024-02-28T18:19:51;5.30;68.90
21676;DHT22;10999;51.332;9.458;2024-02-28T18:22:18;5.20;68.90
21676;DHT22;10999;51.332;9.458;2024-02-28T18:24:45;5.20;69.10
21676;DHT22;10999;51.332;9.458;2024-02-28T18:27:12;5.20;69.30
21676;DHT22;10999;51.332;9.458;2024-02-28T18:29:38;5.20;69.70
21676;DHT22;10999;51.332;9.458;2024-02-28T18:32:05;5.10;70.00
21676;DHT22;10999;51.332;9.458;2024-02-28T18:34:32;5.00;70.40
21676;DHT22;10999;51.332;9.458;2024-02-28T18:36:59;5.00;70.80
21676;DHT22;10999;51.332;9.458;2024-02-28T18:39:26;5.00;71.30
21676;DHT22;10999;51.332;9.458;2024-02-28T18:41:53;4.90;72.00
21676;DHT22;10999;51.332;9.458;2024-02-28T18:44:20;4.90;72.60
21676;DHT22;10999;51.332;9.458;2024-02-28T18:46:47;4.90;73.20
21676;DHT22;10999;51.332;9.458;2024-02-28T18:49:13;4.90;74.50
21676;DHT22;10999;51.332;9.458;2024-02-28T18:51:41;4.80;74.30
21676;DHT22;10999;51.332;9.458;2024-02-28T18:54:08;4.80;74.70
21676;DHT22;10999;51.332;9.458;2024-02-28T18:56:34;4.70;75.20
21676;DHT22;10999;51.332;9.458;2024-02-28T18:59:01;4.70;75.30
21676;DHT22;10999;51.332;9.458;2024-02-28T19:01:28;4.70;75.70
21676;DHT22;10999;51.332;9.458;2024-02-28T19:03:55;4.70;76.10
21676;DHT22;10999;51.332;9.458;2024-02-28T19:06:23;4.60;76.40
21676;DHT22;10999;51.332;9.458;2024-02-28T19:08:51;4.60;76.80
21676;DHT22;10999;51.332;9.458;2024-02-28T19:11:22;4.50;77.20
21676;DHT22;10999;51.332;9.458;2024-02-28T19:13:49;4.50;77.60
21676;DHT22;10999;51.332;9.458;2024-02-28T19:16:17;4.50;78.10
21676;DHT22;10999;51.332;9.458;2024-02-28T19:18:45;4.50;78.60
21676;DHT22;10999;51.332;9.458;2024-02-28T19:21:12;4.50;78.90
21676;DHT22;10999;51.332;9.458;2024-02-28T19:23:38;4.40;79.10
21676;DHT22;10999;51.332;9.458;2024-02-28T19:26:07;4.40;79.50
21676;DHT22;10999;51.332;9.458;2024-02-28T19:28:34;4.40;79.70
21676;DHT22;10999;51.332;9.458;2024-02-28T19:31:00;4.40;79.80
21676;DHT22;10999;51.332;9.458;2024-02-28T19:33:29;4.40;80.00
21676;DHT22;10999;51.332;9.458;2024-02-28T19:35:56;4.40;80.30
21676;DHT22;10999;51.332;9.458;2024-02-28T19:38:22;4.30;80.50
21676;DHT22;10999;51.332;9.458;2024-02-28T19:40:49;4.30;80.80
21676;DHT22;10999;51.332;9.458;2024-02-28T19:43:17;4.30;81.00
21676;DHT22;10999;51.332;9.458;2024-02-28T19:45:45;4.30;81.40
21676;DHT22;10999;51.332;9.458;2024-02-28T19:48:11;4.30;81.40
21676;DHT22;10999;51.332;9.458;2024-02-28T19:50:38;4.20;81.40
21676;DHT22;10999;51.332;9.458;2024-02-28T19:53:05;4.20;81.50
21676;DHT22;10999;51.332;9.458;2024-02-28T19:55:32;4.20;81.50
21676;DHT22;10999;51.332;9.458;2024-02-28T19:57:59;4.20;81.80
21676;DHT22;10999;51.332;9.458;2024-02-28T20:00:26;4.10;81.90
21676;DHT22;10999;51.332;9.458;2024-02-28T20:02:53;4.10;82.10
21676;DHT22;10999;51.332;9.458;2024-02-28T20:05:20;4.00;82.40
21676;DHT22;10999;51.332;9.458;2024-02-28T20:07:48;4.00;82.70
21676;DHT22;10999;51.332;9.458;2024-02-28T20:10:14;4.00;83.00
21676;DHT22;10999;51.332;9.458;2024-02-28T20:12:42;4.00;83.10
21676;DHT22;10999;51.332;9.458;2024-02-28T20:15:09;3.90;83.30
21676;DHT22;10999;51.332;9.458;2024-02-28T20:17:36;3.90;83.60
21676;DHT22;10999;51.332;9.458;2024-02-28T20:20:04;3.90;83.90
21676;DHT22;10999;51.332;9.458;2024-02-28T20:22:31;3.80;84.20
21676;DHT22;10999;51.332;9.458;2024-02-28T20:24:58;3.80;84.70
21676;DHT22;10999;51.332;9.458;2024-02-28T20:27:25;3.80;85.00
21676;DHT22;10999;51.332;9.458;2024-02-28T20:29:52;3.80;85.70
21676;DHT22;10999;51.332;9.458;2024-02-28T20:32:18;3.90;87.30
21676;DHT22;10999;51.332;9.458;2024-02-28T20:34:45;3.90;87.30
21676;DHT22;10999;51.332;9.458;2024-02-28T20:37:12;4.00;87.50
21676;DHT22;10999;51.332;9.458;2024-02-28T20:39:39;3.90;87.50
21676;DHT22;10999;51.332;9.458;2024-02-28T20:42:06;4.00;87.80
21676;DHT22;10999;51.332;9.458;2024-02-28T20:44:32;4.10;87.90
21676;DHT22;10999;51.332;9.458;2024-02-28T20:46:59;4.00;87.70
21676;DHT22;10999;51.332;9.458;2024-02-28T20:49:26;4.00;87.50
21676;DHT22;10999;51.332;9.458;2024-02-28T20:51:53;4.00;87.70
21676;DHT22;10999;51.332;9.458;2024-02-28T20:54:23;4.00;87.80
21676;DHT22;10999;51.332;9.458;2024-02-28T20:56:50;4.00;88.00
21676;DHT22;10999;51.332;9.458;2024-02-28T20:59:31;4.00;88.10
21676;DHT22;10999;51.332;9.458;2024-02-28T21:02:01;4.10;87.90
21676;DHT22;10999;51.332;9.458;2024-02-28T21:04:27;4.10;87.70
21676;DHT22;10999;51.332;9.458;2024-02-28T21:06:55;4.10;87.50
21676;DHT22;10999;51.332;9.458;2024-02-28T21:09:22;4.10;87.40
21676;DHT22;10999;51.332;9.458;2024-02-28T21:11:51;4.00;87.20
21676;DHT22;10999;51.332;9.458;2024-02-28T21:14:27;4.00;87.20
21676;DHT22;10999;51.332;9.458;2024-02-28T21:16:54;4.00;87.50
21676;DHT22;10999;51.332;9.458;2024-02-28T21:19:22;4.00;87.60
21676;DHT22;10999;51.332;9.458;2024-02-28T21:21:49;4.00;87.70
21676;DHT22;10999;51.332;9.458;2024-02-28T21:24:15;4.10;87.40
21676;DHT22;10999;51.332;9.458;2024-02-28T21:26:42;4.00;87.10
21676;DHT22;10999;51.332;9.458;2024-02-28T21:29:09;4.00;87.00
21676;DHT22;10999;51.332;9.458;2024-02-28T21:31:36;3.90;87.40
21676;DHT22;10999;51.332;9.458;2024-02-28T21:34:03;4.00;87.50
21676;DHT22;10999;51.332;9.458;2024-02-28T21:36:30;3.90;87.50
21676;DHT22;10999;51.332;9.458;2024-02-28T21:38:57;3.90;87.80
21676;DHT22;10999;51.332;9.458;2024-02-28T21:41:25;3.90;87.80
21676;DHT22;10999;51.332;9.458;2024-02-28T21:43:52;3.90;87.70
21676;DHT22;10999;51.332;9.458;2024-02-28T21:46:20;3.80;87.50
21676;DHT22;10999;51.332;9.458;2024-02-28T21:48:48;3.80;87.70
21676;DHT22;10999;51.332;9.458;2024-02-28T21:51:24;3.70;87.80
21676;DHT22;10999;51.332;9.458;2024-02-28T21:53:51;3.70;88.90
21676;DHT22;10999;51.332;9.458;2024-02-28T21:56:17;3.70;88.80
21676;DHT22;10999;51.332;9.458;2024-02-28T21:58:44;3.60;88.80
21676;DHT22;10999;51.332;9.458;2024-02-28T22:01:12;3.60;89.20
21676;DHT22;10999;51.332;9.458;2024-02-28T22:03:39;3.60;88.90
21676;DHT22;10999;51.332;9.458;2024-02-28T22:06:06;3.60;89.40
21676;DHT22;10999;51.332;9.458;2024-02-28T22:08:36;3.50;89.30
21676;DHT22;10999;51.332;9.458;2024-02-28T22:11:03;3.50;89.10
21676;DHT22;10999;51.332;9.458;2024-02-28T22:13:33;3.40;90.30
21676;DHT22;10999;51.332;9.458;2024-02-28T22:15:59;3.40;89.70
21676;DHT22;10999;51.332;9.458;2024-02-28T22:18:26;3.40;90.40
21676;DHT22;10999;51.332;9.458;2024-02-28T22:20:53;3.40;90.50
21676;DHT22;10999;51.332;9.458;2024-02-28T22:23:20;3.40;91.30
21676;DHT22;10999;51.332;9.458;2024-02-28T22:25:46;3.40;91.10
21676;DHT22;10999;51.332;9.458;2024-02-28T22:28:13;3.50;91.20
21676;DHT22;10999;51.332;9.458;2024-02-28T22:30:40;3.40;90.70
21676;DHT22;10999;51.332;9.458;2024-02-28T22:33:07;3.40;90.60
21676;DHT22;10999;51.332;9.458;2024-02-28T22:35:34;3.40;90.60
21676;DHT22;10999;51.332;9.458;2024-02-28T22:38:01;3.50;90.70
21676;DHT22;10999;51.332;9.458;2024-02-28T22:40:28;3.50;90.60
21676;DHT22;10999;51.332;9.458;2024-02-28T22:42:54;3.40;90.40
21676;DHT22;10999;51.332;9.458;2024-02-28T22:45:21;3.40;90.40
21676;DHT22;10999;51.332;9.458;2024-02-28T22:47:48;3.40;90.60
21676;DHT22;10999;51.332;9.458;2024-02-28T22:50:15;3.40;90.60